sensor_id;sensor_type;location;lat;lon;timestamp;P1;durP1;ratioP1;P2;durP2;ratioP2
21814;SDS011;11069;48.988;8.450;2022-09-17T00:01:48;7.40;;;1.90;;
21814;SDS011;11069;48.988;8.450;2022-09-17T00:04:13;3.55;;;1.80;;
21814;SDS011;11069;48.988;8.450;2022-09-17T00:06:39;4.75;;;1.98;;
21814;SDS011;11069;48.988;8.450;2022-09-17T00:09:05;6.30;;;1.92;;
21814;SDS011;11069;48.988;8.450;2022-09-17T00:11:32;5.22;;;1.88;;
21814;SDS011;11069;48.988;8.450;2022-09-17T00:14:00;7.38;;;1.88;;
21814;SDS011;11069;48.988;8.450;2022-09-17T00:16:32;4.78;;;1.90;;
21814;SDS011;11069;48.988;8.450;2022-09-17T00:19:03;3.00;;;1.90;;
21814;SDS011;11069;48.988;8.450;2022-09-17T00:21:30;5.97;;;1.90;;
21814;SDS011;11069;48.988;8.450;2022-09-17T00:23:58;4.75;;;1.88;;
21814;SDS011;11069;48.988;8.450;2022-09-17T00:26:25;4.18;;;1.92;;
21814;SDS011;11069;48.988;8.450;2022-09-17T00:28:52;3.25;;;1.73;;
21814;SDS011;11069;48.988;8.450;2022-09-17T00:31:19;5.43;;;2.20;;
21814;SDS011;11069;48.988;8.450;2022-09-17T00:33:45;8.60;;;2.00;;
21814;SDS011;11069;48.988;8.450;2022-09-17T00:36:11;4.30;;;1.90;;
21814;SDS011;11069;48.988;8.450;2022-09-17T00:38:37;3.60;;;1.60;;
21814;SDS011;11069;48.988;8.450;2022-09-17T00:41:03;5.28;;;2.00;;
21814;SDS011;11069;48.988;8.450;2022-09-17T00:48:51;4.03;;;1.65;;
21814;SDS011;11069;48.988;8.450;2022-09-17T00:51:20;2.70;;;1.50;;
21814;SDS011;11069;48.988;8.450;2022-09-17T00:53:51;4.13;;;1.60;;
21814;SDS011;11069;48.988;8.450;2022-09-17T00:58:50;4.45;;;1.80;;
21814;SDS011;11069;48.988;8.450;2022-09-17T01:01:17;4.68;;;1.63;;
21814;SDS011;11069;48.988;8.450;2022-09-17T01:03:43;7.35;;;1.95;;
21814;SDS011;11069;48.988;8.450;2022-09-17T01:08:59;3.65;;;1.60;;
21814;SDS011;11069;48.988;8.450;2022-09-17T01:11:52;3.58;;;1.85;;
21814;SDS011;11069;48.988;8.450;2022-09-17T01:22:58;8.00;;;1.70;;
21814;SDS011;11069;48.988;8.450;2022-09-17T01:25:40;4.35;;;1.60;;
21814;SDS011;11069;48.988;8.450;2022-09-17T01:36:55;7.95;;;2.10;;
21814;SDS011;11069;48.988;8.450;2022-09-17T01:42:03;6.00;;;2.22;;
21814;SDS011;11069;48.988;8.450;2022-09-17T01:52:08;4.88;;;1.83;;
21814;SDS011;11069;48.988;8.450;2022-09-17T01:54:36;3.63;;;1.88;;
21814;SDS011;11069;48.988;8.450;2022-09-17T01:57:14;5.00;;;1.92;;
21814;SDS011;11069;48.988;8.450;2022-09-17T02:02:56;4.10;;;1.83;;
21814;SDS011;11069;48.988;8.450;2022-09-17T02:05:27;4.20;;;2.00;;
21814;SDS011;11069;48.988;8.450;2022-09-17T02:08:04;5.07;;;1.85;;
21814;SDS011;11069;48.988;8.450;2022-09-17T02:10:35;4.20;;;2.00;;
21814;SDS011;11069;48.988;8.450;2022-09-17T02:13:12;6.28;;;2.20;;
21814;SDS011;11069;48.988;8.450;2022-09-17T02:15:53;5.28;;;2.08;;
21814;SDS011;11069;48.988;8.450;2022-09-17T02:18:29;7.15;;;1.98;;
21814;SDS011;11069;48.988;8.450;2022-09-17T02:21:06;7.75;;;2.20;;
21814;SDS011;11069;48.988;8.450;2022-09-17T02:23:39;4.63;;;1.85;;
21814;SDS011;11069;48.988;8.450;2022-09-17T02:26:17;4.97;;;1.92;;
21814;SDS011;11069;48.988;8.450;2022-09-17T02:28:46;3.22;;;1.73;;
21814;SDS011;11069;48.988;8.450;2022-09-17T02:31:15;7.60;;;1.90;;
21814;SDS011;11069;48.988;8.450;2022-09-17T02:33:42;5.05;;;1.83;;
21814;SDS011;11069;48.988;8.450;2022-09-17T02:36:12;6.75;;;1.90;;
21814;SDS011;11069;48.988;8.450;2022-09-17T02:38:39;6.45;;;1.80;;
21814;SDS011;11069;48.988;8.450;2022-09-17T02:41:15;3.78;;;1.77;;
21814;SDS011;11069;48.988;8.450;2022-09-17T02:43:53;3.47;;;1.85;;
21814;SDS011;11069;48.988;8.450;2022-09-17T02:46:41;7.22;;;2.40;;
21814;SDS011;11069;48.988;8.450;2022-09-17T02:52:16;5.68;;;1.95;;
21814;SDS011;11069;48.988;8.450;2022-09-17T02:58:16;5.43;;;2.00;;
21814;SDS011;11069;48.988;8.450;2022-09-17T03:00:45;3.67;;;2.08;;
21814;SDS011;11069;48.988;8.450;2022-09-17T03:03:12;6.28;;;2.30;;
21814;SDS011;11069;48.988;8.450;2022-09-17T03:05:45;3.83;;;1.88;;
21814;SDS011;11069;48.988;8.450;2022-09-17T03:08:12;7.57;;;2.00;;
21814;SDS011;11069;48.988;8.450;2022-09-17T03:10:40;3.47;;;1.90;;
21814;SDS011;11069;48.988;8.450;2022-09-17T03:13:05;6.88;;;2.40;;
21814;SDS011;11069;48.988;8.450;2022-09-17T03:15:31;6.75;;;2.13;;
21814;SDS011;11069;48.988;8.450;2022-09-17T03:17:57;5.32;;;1.88;;
21814;SDS011;11069;48.988;8.450;2022-09-17T03:20:22;8.80;;;2.30;;
21814;SDS011;11069;48.988;8.450;2022-09-17T03:22:48;9.70;;;2.30;;
21814;SDS011;11069;48.988;8.450;2022-09-17T03:25:16;7.18;;;2.22;;
21814;SDS011;11069;48.988;8.450;2022-09-17T03:27:41;5.63;;;2.10;;
21814;SDS011;11069;48.988;8.450;2022-09-17T03:30:08;5.50;;;2.28;;
21814;SDS011;11069;48.988;8.450;2022-09-17T03:32:34;5.72;;;2.13;;
21814;SDS011;11069;48.988;8.450;2022-09-17T03:35:00;8.15;;;2.60;;
21814;SDS011;11069;48.988;8.450;2022-09-17T03:37:25;6.38;;;2.40;;
21814;SDS011;11069;48.988;8.450;2022-09-17T03:39:51;8.20;;;2.22;;
21814;SDS011;11069;48.988;8.450;2022-09-17T03:42:16;5.13;;;2.15;;
21814;SDS011;11069;48.988;8.450;2022-09-17T03:44:42;7.63;;;2.25;;
21814;SDS011;11069;48.988;8.450;2022-09-17T03:47:07;9.93;;;2.50;;
21814;SDS011;11069;48.988;8.450;2022-09-17T03:49:33;8.25;;;2.50;;
21814;SDS011;11069;48.988;8.450;2022-09-17T03:51:59;4.35;;;2.22;;
21814;SDS011;11069;48.988;8.450;2022-09-17T03:54:27;5.88;;;2.38;;
21814;SDS011;11069;48.988;8.450;2022-09-17T03:56:53;8.05;;;2.70;;
21814;SDS011;11069;48.988;8.450;2022-09-17T03:59:19;7.07;;;2.50;;
21814;SDS011;11069;48.988;8.450;2022-09-17T04:01:44;8.13;;;2.63;;
21814;SDS011;11069;48.988;8.450;2022-09-17T04:04:10;3.40;;;2.38;;
21814;SDS011;11069;48.988;8.450;2022-09-17T04:06:36;5.82;;;2.50;;
21814;SDS011;11069;48.988;8.450;2022-09-17T04:09:01;7.63;;;2.40;;
21814;SDS011;11069;48.988;8.450;2022-09-17T04:11:29;6.97;;;2.60;;
21814;SDS011;11069;48.988;8.450;2022-09-17T04:13:54;7.22;;;2.70;;
21814;SDS011;11069;48.988;8.450;2022-09-17T04:16:20;8.43;;;2.75;;
21814;SDS011;11069;48.988;8.450;2022-09-17T04:18:45;9.57;;;2.63;;
21814;SDS011;11069;48.988;8.450;2022-09-17T04:21:11;6.88;;;2.40;;
21814;SDS011;11069;48.988;8.450;2022-09-17T04:23:37;4.28;;;2.65;;
21814;SDS011;11069;48.988;8.450;2022-09-17T04:26:02;8.60;;;2.60;;
21814;SDS011;11069;48.988;8.450;2022-09-17T04:28:28;6.85;;;2.70;;
21814;SDS011;11069;48.988;8.450;2022-09-17T04:30:54;6.65;;;2.90;;
21814;SDS011;11069;48.988;8.450;2022-09-17T04:33:19;8.88;;;2.75;;
21814;SDS011;11069;48.988;8.450;2022-09-17T04:35:45;8.75;;;2.70;;
21814;SDS011;11069;48.988;8.450;2022-09-17T04:38:11;9.43;;;2.83;;
21814;SDS011;11069;48.988;8.450;2022-09-17T04:43:08;6.18;;;2.60;;
21814;SDS011;11069;48.988;8.450;2022-09-17T04:45:36;7.25;;;2.72;;
21814;SDS011;11069;48.988;8.450;2022-09-17T04:48:01;5.20;;;2.50;;
21814;SDS011;11069;48.988;8.450;2022-09-17T04:50:27;6.70;;;3.15;;
21814;SDS011;11069;48.988;8.450;2022-09-17T04:52:52;9.77;;;2.70;;
21814;SDS011;11069;48.988;8.450;2022-09-17T04:55:18;7.95;;;2.72;;
21814;SDS011;11069;48.988;8.450;2022-09-17T04:57:50;7.50;;;3.05;;
21814;SDS011;11069;48.988;8.450;2022-09-17T05:00:17;6.45;;;2.88;;
21814;SDS011;11069;48.988;8.450;2022-09-17T05:02:45;7.43;;;2.75;;
21814;SDS011;11069;48.988;8.450;2022-09-17T05:05:12;9.20;;;3.30;;
21814;SDS011;11069;48.988;8.450;2022-09-17T05:07:39;7.53;;;3.20;;
21814;SDS011;11069;48.988;8.450;2022-09-17T05:10:05;7.45;;;2.78;;
21814;SDS011;11069;48.988;8.450;2022-09-17T05:12:32;7.25;;;3.00;;
21814;SDS011;11069;48.988;8.450;2022-09-17T05:14:57;7.65;;;2.78;;
21814;SDS011;11069;48.988;8.450;2022-09-17T05:17:23;13.38;;;3.22;;
21814;SDS011;11069;48.988;8.450;2022-09-17T05:19:49;9.98;;;3.15;;
21814;SDS011;11069;48.988;8.450;2022-09-17T05:22:14;7.22;;;3.20;;
21814;SDS011;11069;48.988;8.450;2022-09-17T05:24:43;9.02;;;3.10;;
21814;SDS011;11069;48.988;8.450;2022-09-17T05:27:08;9.50;;;2.95;;
21814;SDS011;11069;48.988;8.450;2022-09-17T05:29:34;5.30;;;2.58;;
21814;SDS011;11069;48.988;8.450;2022-09-17T05:32:00;6.10;;;3.50;;
21814;SDS011;11069;48.988;8.450;2022-09-17T05:34:27;13.38;;;3.90;;
21814;SDS011;11069;48.988;8.450;2022-09-17T05:36:52;11.80;;;3.83;;
21814;SDS011;11069;48.988;8.450;2022-09-17T05:39:18;7.43;;;3.67;;
21814;SDS011;11069;48.988;8.450;2022-09-17T05:41:46;10.82;;;3.50;;
21814;SDS011;11069;48.988;8.450;2022-09-17T05:44:12;10.25;;;3.65;;
21814;SDS011;11069;48.988;8.450;2022-09-17T05:46:38;8.38;;;3.38;;
21814;SDS011;11069;48.988;8.450;2022-09-17T05:49:03;6.97;;;3.38;;
21814;SDS011;11069;48.988;8.450;2022-09-17T05:51:29;11.15;;;3.25;;
21814;SDS011;11069;48.988;8.450;2022-09-17T05:53:55;11.15;;;3.63;;
21814;SDS011;11069;48.988;8.450;2022-09-17T05:56:21;8.55;;;3.67;;
21814;SDS011;11069;48.988;8.450;2022-09-17T05:58:47;9.90;;;4.07;;
21814;SDS011;11069;48.988;8.450;2022-09-17T06:01:13;15.18;;;4.88;;
21814;SDS011;11069;48.988;8.450;2022-09-17T06:03:40;11.68;;;4.72;;
21814;SDS011;11069;48.988;8.450;2022-09-17T06:06:07;14.80;;;5.38;;
21814;SDS011;11069;48.988;8.450;2022-09-17T06:08:32;11.85;;;5.60;;
21814;SDS011;11069;48.988;8.450;2022-09-17T06:11:04;10.85;;;5.57;;
21814;SDS011;11069;48.988;8.450;2022-09-17T06:13:31;13.90;;;6.15;;
21814;SDS011;11069;48.988;8.450;2022-09-17T06:15:57;11.05;;;6.00;;
21814;SDS011;11069;48.988;8.450;2022-09-17T06:18:23;13.10;;;6.53;;
21814;SDS011;11069;48.988;8.450;2022-09-17T06:20:52;10.90;;;7.20;;
21814;SDS011;11069;48.988;8.450;2022-09-17T06:23:19;14.93;;;7.37;;
21814;SDS011;11069;48.988;8.450;2022-09-17T06:25:52;10.30;;;7.05;;
21814;SDS011;11069;48.988;8.450;2022-09-17T06:28:21;13.65;;;7.88;;
21814;SDS011;11069;48.988;8.450;2022-09-17T06:30:47;16.55;;;8.38;;
21814;SDS011;11069;48.988;8.450;2022-09-17T06:33:13;18.33;;;9.07;;
21814;SDS011;11069;48.988;8.450;2022-09-17T06:35:39;16.35;;;9.40;;
21814;SDS011;11069;48.988;8.450;2022-09-17T06:38:05;19.88;;;9.73;;
21814;SDS011;11069;48.988;8.450;2022-09-17T06:40:31;16.02;;;9.65;;
21814;SDS011;11069;48.988;8.450;2022-09-17T06:42:57;17.05;;;10.18;;
21814;SDS011;11069;48.988;8.450;2022-09-17T06:45:23;17.30;;;11.13;;
21814;SDS011;11069;48.988;8.450;2022-09-17T06:47:52;16.13;;;10.75;;
21814;SDS011;11069;48.988;8.450;2022-09-17T06:50:18;18.90;;;11.63;;
21814;SDS011;11069;48.988;8.450;2022-09-17T06:52:48;16.33;;;11.30;;
21814;SDS011;11069;48.988;8.450;2022-09-17T06:55:14;19.05;;;11.80;;
21814;SDS011;11069;48.988;8.450;2022-09-17T06:57:40;17.13;;;10.70;;
21814;SDS011;11069;48.988;8.450;2022-09-17T07:00:07;15.02;;;11.57;;
21814;SDS011;11069;48.988;8.450;2022-09-17T07:02:34;17.90;;;9.95;;
21814;SDS011;11069;48.988;8.450;2022-09-17T07:05:00;17.25;;;10.70;;
21814;SDS011;11069;48.988;8.450;2022-09-17T07:07:26;17.42;;;10.63;;
21814;SDS011;11069;48.988;8.450;2022-09-17T07:09:53;14.52;;;9.68;;
21814;SDS011;11069;48.988;8.450;2022-09-17T07:12:19;17.58;;;10.05;;
21814;SDS011;11069;48.988;8.450;2022-09-17T07:14:45;12.90;;;9.55;;
21814;SDS011;11069;48.988;8.450;2022-09-17T07:17:13;10.95;;;9.00;;
21814;SDS011;11069;48.988;8.450;2022-09-17T07:19:39;11.60;;;9.13;;
21814;SDS011;11069;48.988;8.450;2022-09-17T07:22:05;13.90;;;9.00;;
21814;SDS011;11069;48.988;8.450;2022-09-17T07:24:32;12.25;;;8.38;;
21814;SDS011;11069;48.988;8.450;2022-09-17T07:26:58;12.02;;;9.05;;
21814;SDS011;11069;48.988;8.450;2022-09-17T07:29:24;14.27;;;9.38;;
21814;SDS011;11069;48.988;8.450;2022-09-17T07:31:53;13.90;;;9.13;;
21814;SDS011;11069;48.988;8.450;2022-09-17T07:34:19;15.07;;;9.48;;
21814;SDS011;11069;48.988;8.450;2022-09-17T07:36:45;13.27;;;8.38;;
21814;SDS011;11069;48.988;8.450;2022-09-17T07:39:10;14.63;;;8.18;;
21814;SDS011;11069;48.988;8.450;2022-09-17T07:41:37;13.23;;;8.13;;
21814;SDS011;11069;48.988;8.450;2022-09-17T07:44:03;11.82;;;7.05;;
21814;SDS011;11069;48.988;8.450;2022-09-17T07:46:30;13.02;;;6.70;;
21814;SDS011;11069;48.988;8.450;2022-09-17T07:48:56;10.82;;;6.03;;
21814;SDS011;11069;48.988;8.450;2022-09-17T07:51:22;9.45;;;5.70;;
21814;SDS011;11069;48.988;8.450;2022-09-17T07:53:53;6.93;;;5.28;;
21814;SDS011;11069;48.988;8.450;2022-09-17T07:56:20;8.93;;;5.50;;
21814;SDS011;11069;48.988;8.450;2022-09-17T07:58:46;8.57;;;5.45;;
21814;SDS011;11069;48.988;8.450;2022-09-17T08:01:13;9.98;;;5.75;;
21814;SDS011;11069;48.988;8.450;2022-09-17T08:03:51;12.00;;;6.15;;
21814;SDS011;11069;48.988;8.450;2022-09-17T08:06:19;9.73;;;5.60;;
21814;SDS011;11069;48.988;8.450;2022-09-17T08:08:46;11.70;;;6.38;;
21814;SDS011;11069;48.988;8.450;2022-09-17T08:11:13;10.23;;;6.70;;
21814;SDS011;11069;48.988;8.450;2022-09-17T08:13:41;7.97;;;4.72;;
21814;SDS011;11069;48.988;8.450;2022-09-17T08:16:08;8.82;;;5.60;;
21814;SDS011;11069;48.988;8.450;2022-09-17T08:18:37;9.93;;;5.53;;
21814;SDS011;11069;48.988;8.450;2022-09-17T08:21:03;9.52;;;5.57;;
21814;SDS011;11069;48.988;8.450;2022-09-17T08:23:31;11.80;;;5.50;;
21814;SDS011;11069;48.988;8.450;2022-09-17T08:25:59;7.55;;;5.35;;
21814;SDS011;11069;48.988;8.450;2022-09-17T08:28:25;14.90;;;4.90;;
21814;SDS011;11069;48.988;8.450;2022-09-17T08:30:52;11.48;;;5.15;;
21814;SDS011;11069;48.988;8.450;2022-09-17T08:33:19;7.53;;;4.50;;
21814;SDS011;11069;48.988;8.450;2022-09-17T08:35:54;8.88;;;4.40;;
21814;SDS011;11069;48.988;8.450;2022-09-17T08:38:23;11.73;;;4.72;;
21814;SDS011;11069;48.988;8.450;2022-09-17T08:41:03;8.20;;;4.30;;
21814;SDS011;11069;48.988;8.450;2022-09-17T08:43:48;10.77;;;4.22;;
21814;SDS011;11069;48.988;8.450;2022-09-17T08:46:15;10.98;;;4.47;;
21814;SDS011;11069;48.988;8.450;2022-09-17T08:48:42;8.77;;;4.38;;
21814;SDS011;11069;48.988;8.450;2022-09-17T08:51:21;10.25;;;4.28;;
21814;SDS011;11069;48.988;8.450;2022-09-17T08:53:55;9.30;;;4.70;;
21814;SDS011;11069;48.988;8.450;2022-09-17T08:56:30;9.27;;;4.10;;
21814;SDS011;11069;48.988;8.450;2022-09-17T08:59:10;7.53;;;3.92;;
21814;SDS011;11069;48.988;8.450;2022-09-17T09:07:11;6.93;;;4.13;;
21814;SDS011;11069;48.988;8.450;2022-09-17T09:09:47;7.03;;;3.50;;
21814;SDS011;11069;48.988;8.450;2022-09-17T09:12:21;7.28;;;3.60;;
21814;SDS011;11069;48.988;8.450;2022-09-17T09:14:51;10.15;;;3.50;;
21814;SDS011;11069;48.988;8.450;2022-09-17T09:17:22;8.98;;;3.60;;
21814;SDS011;11069;48.988;8.450;2022-09-17T09:22:25;10.68;;;3.63;;
21814;SDS011;11069;48.988;8.450;2022-09-17T09:25:20;7.30;;;3.10;;
21814;SDS011;11069;48.988;8.450;2022-09-17T09:31:09;9.25;;;3.03;;
21814;SDS011;11069;48.988;8.450;2022-09-17T09:33:32;7.28;;;2.63;;
21814;SDS011;11069;48.988;8.450;2022-09-17T09:38:32;6.50;;;2.35;;
21814;SDS011;11069;48.988;8.450;2022-09-17T09:41:12;8.43;;;2.70;;
21814;SDS011;11069;48.988;8.450;2022-09-17T09:43:49;7.25;;;2.47;;
21814;SDS011;11069;48.988;8.450;2022-09-17T09:57:03;6.43;;;2.60;;
21814;SDS011;11069;48.988;8.450;2022-09-17T09:59:36;9.23;;;3.00;;
21814;SDS011;11069;48.988;8.450;2022-09-17T10:02:02;7.60;;;2.95;;
21814;SDS011;11069;48.988;8.450;2022-09-17T10:04:28;8.98;;;2.60;;
21814;SDS011;11069;48.988;8.450;2022-09-17T10:07:00;8.20;;;2.50;;
21814;SDS011;11069;48.988;8.450;2022-09-17T10:09:34;6.28;;;2.40;;
21814;SDS011;11069;48.988;8.450;2022-09-17T10:14:34;8.75;;;2.55;;
21814;SDS011;11069;48.988;8.450;2022-09-17T10:19:44;9.80;;;2.20;;
21814;SDS011;11069;48.988;8.450;2022-09-17T10:22:23;6.03;;;2.25;;
21814;SDS011;11069;48.988;8.450;2022-09-17T10:24:56;8.65;;;2.45;;
21814;SDS011;11069;48.988;8.450;2022-09-17T10:27:24;7.68;;;2.75;;
21814;SDS011;11069;48.988;8.450;2022-09-17T10:30:33;7.75;;;2.50;;
21814;SDS011;11069;48.988;8.450;2022-09-17T10:32:41;6.20;;;2.20;;
21814;SDS011;11069;48.988;8.450;2022-09-17T10:37:45;7.18;;;2.58;;
21814;SDS011;11069;48.988;8.450;2022-09-17T10:42:42;9.90;;;2.63;;
21814;SDS011;11069;48.988;8.450;2022-09-17T10:45:10;7.28;;;2.63;;
21814;SDS011;11069;48.988;8.450;2022-09-17T10:47:51;6.57;;;2.70;;
21814;SDS011;11069;48.988;8.450;2022-09-17T10:50:18;6.53;;;2.40;;
21814;SDS011;11069;48.988;8.450;2022-09-17T10:53:06;5.72;;;2.38;;
21814;SDS011;11069;48.988;8.450;2022-09-17T10:55:45;4.72;;;2.08;;
21814;SDS011;11069;48.988;8.450;2022-09-17T11:01:05;6.82;;;2.30;;
21814;SDS011;11069;48.988;8.450;2022-09-17T11:12:16;5.68;;;2.97;;
21814;SDS011;11069;48.988;8.450;2022-09-17T11:15:02;5.68;;;2.67;;
21814;SDS011;11069;48.988;8.450;2022-09-17T11:22:59;5.30;;;2.63;;
21814;SDS011;11069;48.988;8.450;2022-09-17T11:25:33;7.68;;;2.63;;
21814;SDS011;11069;48.988;8.450;2022-09-17T11:28:17;8.27;;;2.50;;
21814;SDS011;11069;48.988;8.450;2022-09-17T11:36:43;4.85;;;2.28;;
21814;SDS011;11069;48.988;8.450;2022-09-17T11:39:13;6.50;;;2.15;;
21814;SDS011;11069;48.988;8.450;2022-09-17T11:41:45;7.50;;;2.53;;
21814;SDS011;11069;48.988;8.450;2022-09-17T11:44:28;5.30;;;1.80;;
21814;SDS011;11069;48.988;8.450;2022-09-17T11:47:01;6.28;;;2.13;;
21814;SDS011;11069;48.988;8.450;2022-09-17T11:49:38;5.35;;;2.00;;
21814;SDS011;11069;48.988;8.450;2022-09-17T11:52:06;6.20;;;1.92;;
21814;SDS011;11069;48.988;8.450;2022-09-17T11:54:58;6.43;;;2.00;;
21814;SDS011;11069;48.988;8.450;2022-09-17T11:57:32;6.93;;;2.03;;
21814;SDS011;11069;48.988;8.450;2022-09-17T12:00:11;4.10;;;1.40;;
21814;SDS011;11069;48.988;8.450;2022-09-17T12:05:21;5.95;;;1.92;;
21814;SDS011;11069;48.988;8.450;2022-09-17T12:08:08;7.05;;;2.38;;
21814;SDS011;11069;48.988;8.450;2022-09-17T12:10:50;8.30;;;2.70;;
21814;SDS011;11069;48.988;8.450;2022-09-17T12:13:39;5.05;;;2.00;;
21814;SDS011;11069;48.988;8.450;2022-09-17T12:22:12;4.97;;;2.50;;
21814;SDS011;11069;48.988;8.450;2022-09-17T12:24:25;7.82;;;2.80;;
21814;SDS011;11069;48.988;8.450;2022-09-17T12:40:25;6.78;;;2.70;;
21814;SDS011;11069;48.988;8.450;2022-09-17T12:45:49;6.95;;;2.78;;
21814;SDS011;11069;48.988;8.450;2022-09-17T12:48:21;10.60;;;2.85;;
21814;SDS011;11069;48.988;8.450;2022-09-17T12:51:06;6.25;;;2.88;;
21814;SDS011;11069;48.988;8.450;2022-09-17T12:54:38;6.93;;;3.00;;
21814;SDS011;11069;48.988;8.450;2022-09-17T12:59:19;9.63;;;3.00;;
21814;SDS011;11069;48.988;8.450;2022-09-17T13:01:54;5.50;;;2.70;;
21814;SDS011;11069;48.988;8.450;2022-09-17T13:18:16;8.70;;;2.00;;
21814;SDS011;11069;48.988;8.450;2022-09-17T13:21:02;7.47;;;2.05;;
21814;SDS011;11069;48.988;8.450;2022-09-17T13:23:39;6.53;;;1.90;;
21814;SDS011;11069;48.988;8.450;2022-09-17T13:26:08;4.97;;;1.73;;
21814;SDS011;11069;48.988;8.450;2022-09-17T13:28:39;6.10;;;1.85;;
21814;SDS011;11069;48.988;8.450;2022-09-17T13:31:05;7.00;;;1.70;;
21814;SDS011;11069;48.988;8.450;2022-09-17T13:33:48;4.63;;;1.70;;
21814;SDS011;11069;48.988;8.450;2022-09-17T13:47:34;6.45;;;2.47;;
21814;SDS011;11069;48.988;8.450;2022-09-17T13:50:23;8.52;;;2.05;;
21814;SDS011;11069;48.988;8.450;2022-09-17T13:52:52;5.03;;;2.00;;
21814;SDS011;11069;48.988;8.450;2022-09-17T13:55:53;5.00;;;1.90;;
21814;SDS011;11069;48.988;8.450;2022-09-17T14:13:56;4.28;;;1.60;;
21814;SDS011;11069;48.988;8.450;2022-09-17T14:21:39;5.53;;;1.67;;
21814;SDS011;11069;48.988;8.450;2022-09-17T14:24:18;6.03;;;2.08;;
21814;SDS011;11069;48.988;8.450;2022-09-17T14:35:36;4.20;;;1.90;;
21814;SDS011;11069;48.988;8.450;2022-09-17T14:41:14;8.43;;;2.20;;
21814;SDS011;11069;48.988;8.450;2022-09-17T14:46:22;3.70;;;1.65;;
21814;SDS011;11069;48.988;8.450;2022-09-17T14:51:47;6.07;;;1.77;;
21814;SDS011;11069;48.988;8.450;2022-09-17T14:56:45;4.22;;;1.58;;
21814;SDS011;11069;48.988;8.450;2022-09-17T15:05:28;3.92;;;1.40;;
21814;SDS011;11069;48.988;8.450;2022-09-17T15:08:06;3.53;;;1.30;;
21814;SDS011;11069;48.988;8.450;2022-09-17T15:10:37;6.07;;;1.70;;
21814;SDS011;11069;48.988;8.450;2022-09-17T15:13:10;5.43;;;1.77;;
21814;SDS011;11069;48.988;8.450;2022-09-17T15:15:38;3.65;;;1.75;;
21814;SDS011;11069;48.988;8.450;2022-09-17T15:18:04;3.15;;;1.40;;
21814;SDS011;11069;48.988;8.450;2022-09-17T15:20:29;2.78;;;1.50;;
21814;SDS011;11069;48.988;8.450;2022-09-17T15:25:47;6.03;;;2.03;;
21814;SDS011;11069;48.988;8.450;2022-09-17T15:28:27;6.70;;;2.28;;
21814;SDS011;11069;48.988;8.450;2022-09-17T15:30:58;6.80;;;2.03;;
21814;SDS011;11069;48.988;8.450;2022-09-17T15:33:23;5.20;;;1.80;;
21814;SDS011;11069;48.988;8.450;2022-09-17T15:36:00;4.75;;;1.80;;
21814;SDS011;11069;48.988;8.450;2022-09-17T15:38:33;6.35;;;1.73;;
21814;SDS011;11069;48.988;8.450;2022-09-17T15:41:22;5.65;;;1.98;;
21814;SDS011;11069;48.988;8.450;2022-09-17T15:43:48;4.30;;;1.88;;
21814;SDS011;11069;48.988;8.450;2022-09-17T15:46:19;5.65;;;1.80;;
21814;SDS011;11069;48.988;8.450;2022-09-17T15:48:54;3.92;;;1.65;;
21814;SDS011;11069;48.988;8.450;2022-09-17T15:51:26;4.35;;;1.65;;
21814;SDS011;11069;48.988;8.450;2022-09-17T15:53:55;4.50;;;1.80;;
21814;SDS011;11069;48.988;8.450;2022-09-17T15:56:27;7.75;;;1.85;;
21814;SDS011;11069;48.988;8.450;2022-09-17T15:58:57;7.03;;;1.95;;
21814;SDS011;11069;48.988;8.450;2022-09-17T16:08:52;9.10;;;2.08;;
21814;SDS011;11069;48.988;8.450;2022-09-17T16:11:25;5.68;;;2.17;;
21814;SDS011;11069;48.988;8.450;2022-09-17T16:13:54;5.93;;;2.20;;
21814;SDS011;11069;48.988;8.450;2022-09-17T16:16:22;6.65;;;2.60;;
21814;SDS011;11069;48.988;8.450;2022-09-17T16:18:50;6.28;;;2.38;;
21814;SDS011;11069;48.988;8.450;2022-09-17T16:21:17;5.20;;;2.33;;
21814;SDS011;11069;48.988;8.450;2022-09-17T16:23:44;7.10;;;2.65;;
21814;SDS011;11069;48.988;8.450;2022-09-17T16:26:29;6.45;;;2.78;;
21814;SDS011;11069;48.988;8.450;2022-09-17T16:28:58;9.15;;;3.10;;
21814;SDS011;11069;48.988;8.450;2022-09-17T16:31:28;9.13;;;2.75;;
21814;SDS011;11069;48.988;8.450;2022-09-17T16:33:54;8.88;;;3.20;;
21814;SDS011;11069;48.988;8.450;2022-09-17T16:36:20;10.43;;;3.80;;
21814;SDS011;11069;48.988;8.450;2022-09-17T16:38:45;8.10;;;3.42;;
21814;SDS011;11069;48.988;8.450;2022-09-17T16:41:11;8.82;;;3.80;;
21814;SDS011;11069;48.988;8.450;2022-09-17T16:43:37;12.50;;;4.10;;
21814;SDS011;11069;48.988;8.450;2022-09-17T16:46:07;12.48;;;4.20;;
21814;SDS011;11069;48.988;8.450;2022-09-17T16:48:36;7.38;;;3.80;;
21814;SDS011;11069;48.988;8.450;2022-09-17T16:51:11;15.80;;;4.68;;
21814;SDS011;11069;48.988;8.450;2022-09-17T16:53:37;12.38;;;4.22;;
21814;SDS011;11069;48.988;8.450;2022-09-17T16:56:07;10.45;;;4.63;;
21814;SDS011;11069;48.988;8.450;2022-09-17T16:58:34;10.80;;;4.82;;
21814;SDS011;11069;48.988;8.450;2022-09-17T17:01:09;10.85;;;4.50;;
21814;SDS011;11069;48.988;8.450;2022-09-17T17:03:37;6.60;;;4.13;;
21814;SDS011;11069;48.988;8.450;2022-09-17T17:06:02;11.77;;;4.50;;
21814;SDS011;11069;48.988;8.450;2022-09-17T17:08:30;9.90;;;4.40;;
21814;SDS011;11069;48.988;8.450;2022-09-17T17:10:56;8.23;;;4.47;;
21814;SDS011;11069;48.988;8.450;2022-09-17T17:13:22;12.93;;;5.65;;
21814;SDS011;11069;48.988;8.450;2022-09-17T17:15:47;10.68;;;5.07;;
21814;SDS011;11069;48.988;8.450;2022-09-17T17:18:14;7.82;;;4.72;;
21814;SDS011;11069;48.988;8.450;2022-09-17T17:20:39;10.00;;;4.55;;
21814;SDS011;11069;48.988;8.450;2022-09-17T17:23:05;10.63;;;5.25;;
21814;SDS011;11069;48.988;8.450;2022-09-17T17:25:30;11.52;;;5.35;;
21814;SDS011;11069;48.988;8.450;2022-09-17T17:27:56;11.23;;;5.38;;
21814;SDS011;11069;48.988;8.450;2022-09-17T17:30:23;12.02;;;5.65;;
21814;SDS011;11069;48.988;8.450;2022-09-17T17:32:50;13.05;;;5.78;;
21814;SDS011;11069;48.988;8.450;2022-09-17T17:35:16;13.85;;;5.18;;
21814;SDS011;11069;48.988;8.450;2022-09-17T17:37:42;13.75;;;5.55;;
21814;SDS011;11069;48.988;8.450;2022-09-17T17:40:08;9.55;;;5.18;;
21814;SDS011;11069;48.988;8.450;2022-09-17T17:42:35;11.90;;;6.18;;
21814;SDS011;11069;48.988;8.450;2022-09-17T17:45:03;11.85;;;5.50;;
21814;SDS011;11069;48.988;8.450;2022-09-17T17:47:30;16.10;;;6.38;;
21814;SDS011;11069;48.988;8.450;2022-09-17T17:49:55;11.85;;;6.00;;
21814;SDS011;11069;48.988;8.450;2022-09-17T17:52:21;14.80;;;6.45;;
21814;SDS011;11069;48.988;8.450;2022-09-17T17:54:46;13.40;;;5.45;;
21814;SDS011;11069;48.988;8.450;2022-09-17T17:57:12;11.40;;;5.97;;
21814;SDS011;11069;48.988;8.450;2022-09-17T17:59:38;11.75;;;6.22;;
21814;SDS011;11069;48.988;8.450;2022-09-17T18:02:03;13.25;;;7.10;;
21814;SDS011;11069;48.988;8.450;2022-09-17T18:04:29;11.95;;;6.32;;
21814;SDS011;11069;48.988;8.450;2022-09-17T18:06:55;13.43;;;5.60;;
21814;SDS011;11069;48.988;8.450;2022-09-17T18:09:20;12.15;;;4.93;;
21814;SDS011;11069;48.988;8.450;2022-09-17T18:11:46;9.00;;;4.88;;
21814;SDS011;11069;48.988;8.450;2022-09-17T18:14:12;7.63;;;4.65;;
21814;SDS011;11069;48.988;8.450;2022-09-17T18:16:37;6.45;;;3.80;;
21814;SDS011;11069;48.988;8.450;2022-09-17T18:19:04;9.75;;;4.22;;
21814;SDS011;11069;48.988;8.450;2022-09-17T18:21:30;11.73;;;4.13;;
21814;SDS011;11069;48.988;8.450;2022-09-17T18:23:56;6.95;;;3.35;;
21814;SDS011;11069;48.988;8.450;2022-09-17T18:26:23;7.60;;;3.42;;
21814;SDS011;11069;48.988;8.450;2022-09-17T18:28:50;5.82;;;2.78;;
21814;SDS011;11069;48.988;8.450;2022-09-17T18:31:21;7.22;;;2.10;;
21814;SDS011;11069;48.988;8.450;2022-09-17T18:36:14;7.45;;;2.15;;
21814;SDS011;11069;48.988;8.450;2022-09-17T18:38:39;9.10;;;2.30;;